St. Stephen, Canada
Current Conditions -  °F | °C
As of 8:00 AM on Monday 20 Oct 2014 (Local Time) from CYFC Reporting Station
Overcast Overcast  
Wind Chill: 32°   Ceiling: 5000
Heat Index: 37°   Visibility: 9mi
Dew Point: 30°   Wind: 7mph
Humidity: 75%   Direction: 260°W
Pressure: 29.77"   Gusts: NA
Location:  45.19°N, 67.28°W
Report Text: CYFC 201100Z AUTO 26006KT 220V290 9SM OVC050 03/M01 A2977 RMK SLP081
Loading
Personal Weather Stations






























Interactive Weather Map
Tropical Storm Tracking
New forecast layout! Learn more

10-Day Weather Forecast

Advertisements
Track Severe Weather on mobile